Time;durP1;ratioP1;P1;durP2;ratioP2;P2;SDS_P1;SDS_P2;PMS_P1;PMS_P2;Temp;Humidity;BMP_temperature;BMP_pressure;BME280_temperature;BME280_humidity;BME280_pressure;Samples;Min_cycle;Max_cycle;Signal;HPM_P1;HPM_P2
2024/02/15 00:01:36;;;;;;;8.40;7.00;;;;;;;12.07;100.00;98613.91;5161976;23;20603;-86
2024/02/15 00:03:39;;;;;;;9.33;7.03;;;;;;;12.05;99.80;98614.00;5137120;23;20635;-87
2024/02/15 00:05:44;;;;;;;10.60;7.20;;;;;;;12.04;99.84;98609.72;5163134;23;21004;-86
2024/02/15 00:07:48;;;;;;;10.60;6.90;;;;;;;12.04;99.30;98601.91;5136862;23;21113;-87
2024/02/15 00:09:53;;;;;;;11.03;7.57;;;;;;;12.02;99.67;98597.69;5137348;23;20577;-88
2024/02/15 00:11:59;;;;;;;9.77;6.70;;;;;;;11.99;99.83;98601.34;5163520;23;20574;-87
2024/02/15 00:14:03;;;;;;;10.30;7.00;;;;;;;11.99;99.66;98606.56;5162393;23;20600;-86
2024/02/15 00:16:06;;;;;;;11.40;6.57;;;;;;;11.98;99.49;98614.50;5162376;22;20580;-87
2024/02/15 00:18:10;;;;;;;9.20;7.00;;;;;;;12.01;100.00;98614.31;5136252;23;20616;-87
2024/02/15 00:20:14;;;;;;;9.70;7.17;;;;;;;12.01;99.12;98614.31;5136501;23;20677;-87
2024/02/15 00:22:17;;;;;;;10.93;7.10;;;;;;;12.00;100.00;98613.47;5163425;23;20576;-87
2024/02/15 00:24:22;;;;;;;11.70;7.90;;;;;;;12.01;100.00;98615.16;5138062;23;20570;-89
2024/02/15 00:26:25;;;;;;;13.37;6.90;;;;;;;12.03;99.95;98621.13;5137874;23;20588;-87
2024/02/15 00:28:29;;;;;;;9.43;7.07;;;;;;;11.98;100.00;98620.59;5164016;22;20583;-86
2024/02/15 00:30:33;;;;;;;8.30;6.63;;;;;;;11.97;99.74;98624.13;5162546;23;20631;-87
2024/02/15 00:32:36;;;;;;;11.80;7.23;;;;;;;11.98;100.00;98609.28;5162281;23;20624;-86
2024/02/15 00:34:40;;;;;;;8.97;6.73;;;;;;;11.98;100.00;98609.28;5164043;22;20905;-85
2024/02/15 00:36:44;;;;;;;11.90;7.50;;;;;;;11.97;99.66;98613.69;5162531;23;20679;-87
2024/02/15 00:38:48;;;;;;;10.47;7.30;;;;;;;11.95;99.41;98614.69;5162562;23;20612;-86
2024/02/15 00:40:53;;;;;;;8.47;7.30;;;;;;;11.92;100.00;98605.31;5136978;23;20585;-86
2024/02/15 00:42:56;;;;;;;8.67;6.70;;;;;;;11.89;100.00;98610.72;5164330;22;20630;-87
2024/02/15 00:44:59;;;;;;;11.00;7.73;;;;;;;11.85;99.63;98604.03;5136744;23;20827;-87
2024/02/15 00:47:02;;;;;;;8.60;6.87;;;;;;;11.84;100.00;98599.72;5161857;23;20562;-87
2024/02/15 00:49:06;;;;;;;10.20;7.40;;;;;;;11.82;99.63;98609.44;5137536;23;20624;-87
2024/02/15 00:51:10;;;;;;;13.30;7.00;;;;;;;11.81;100.00;98602.53;5137154;23;20616;-87
2024/02/15 00:53:13;;;;;;;8.83;6.53;;;;;;;11.79;99.83;98609.63;5163304;23;20672;-86
2024/02/15 00:55:16;;;;;;;9.50;6.67;;;;;;;11.77;100.00;98608.91;5163183;23;20666;-87
2024/02/15 00:57:21;;;;;;;9.73;7.67;;;;;;;11.77;98.64;98605.44;5162132;23;20688;-87
2024/02/15 00:59:23;;;;;;;10.63;6.97;;;;;;;11.78;99.19;98607.97;5139218;23;20617;-86
2024/02/15 01:01:26;;;;;;;11.03;9.23;;;;;;;11.78;99.99;98601.91;5139398;23;20570;-86
2024/02/15 01:03:30;;;;;;;13.53;9.33;;;;;;;11.79;99.15;98596.56;5165641;22;20663;-85
2024/02/15 01:05:34;;;;;;;11.27;8.93;;;;;;;11.80;100.00;98595.66;5139126;23;20600;-86
2024/02/15 01:07:38;;;;;;;11.73;8.57;;;;;;;11.78;100.00;98607.97;5138183;23;21099;-87
2024/02/15 01:09:42;;;;;;;9.77;7.80;;;;;;;11.78;100.00;98597.50;5163754;23;20646;-86
2024/02/15 01:11:45;;;;;;;9.50;7.33;;;;;;;11.80;99.03;98602.63;5164641;23;20619;-87
2024/02/15 01:13:50;;;;;;;10.30;6.90;;;;;;;11.80;100.00;98603.50;5139475;23;20626;-86
2024/02/15 01:15:54;;;;;;;12.87;8.27;;;;;;;11.75;99.50;98602.94;5166046;22;20564;-87
2024/02/15 01:17:58;;;;;;;11.80;8.73;;;;;;;11.68;100.00;98592.16;5165990;22;20544;-87
2024/02/15 01:20:01;;;;;;;10.50;8.40;;;;;;;11.62;100.00;98595.16;5164413;23;20631;-87
2024/02/15 01:22:06;;;;;;;8.43;7.47;;;;;;;11.60;100.00;98597.03;5163519;23;20592;-87
2024/02/15 01:24:10;;;;;;;10.33;7.70;;;;;;;11.60;99.66;98599.66;5166221;22;21259;-87
2024/02/15 01:26:12;;;;;;;9.50;7.47;;;;;;;11.61;99.74;98603.94;5163976;23;20650;-87
2024/02/15 01:28:15;;;;;;;11.00;7.63;;;;;;;11.59;100.00;98597.97;5165591;22;20656;-87
2024/02/15 01:30:20;;;;;;;10.23;7.30;;;;;;;11.59;99.10;98600.56;5163660;23;20567;-87
2024/02/15 01:32:24;;;;;;;10.40;8.10;;;;;;;11.56;100.00;98598.16;5139151;23;20588;-86
2024/02/15 01:34:27;;;;;;;9.23;7.00;;;;;;;11.56;99.61;98587.72;5164181;23;20592;-86
2024/02/15 01:36:31;;;;;;;10.97;7.53;;;;;;;11.55;99.73;98594.72;5162349;23;20576;-87
2024/02/15 01:38:33;;;;;;;9.23;7.40;;;;;;;11.53;100.00;98594.00;5139198;23;20611;-87
2024/02/15 01:40:36;;;;;;;9.97;7.97;;;;;;;11.51;99.13;98595.84;5138997;23;20584;-87
2024/02/15 01:42:39;;;;;;;8.90;7.23;;;;;;;11.49;99.99;98594.28;5114310;23;20970;-87
2024/02/15 01:44:44;;;;;;;9.90;7.40;;;;;;;11.47;100.00;98596.13;5139646;23;20672;-85
2024/02/15 01:46:49;;;;;;;10.20;8.20;;;;;;;11.45;99.10;98588.34;5114002;23;20589;-86
2024/02/15 01:48:52;;;;;;;10.37;7.93;;;;;;;11.43;99.79;98586.81;5139386;23;20582;-86
2024/02/15 01:50:54;;;;;;;9.73;6.73;;;;;;;11.43;99.93;98598.06;5138629;23;20591;-87
2024/02/15 01:52:59;;;;;;;10.40;7.50;;;;;;;11.41;100.00;98601.72;5114242;23;20582;-86
2024/02/15 01:55:07;;;;;;;9.87;7.20;;;;;;;11.41;100.00;98604.31;5138505;23;20549;-87
2024/02/15 01:57:10;;;;;;;11.30;7.50;;;;;;;11.39;100.00;98603.59;5113609;23;20571;-86
2024/02/15 01:59:16;;;;;;;9.10;6.80;;;;;;;11.35;100.00;98597.72;5138773;23;20611;-87
2024/02/15 02:01:22;;;;;;;11.83;7.43;;;;;;;11.35;99.29;98605.56;5112569;23;20656;-87
2024/02/15 02:03:25;;;;;;;10.80;7.83;;;;;;;11.34;100.00;98601.25;5139110;23;20672;-86
2024/02/15 02:05:29;;;;;;;9.50;7.73;;;;;;;11.32;100.00;98592.69;5138477;23;20910;-87
2024/02/15 02:07:33;;;;;;;10.00;7.57;;;;;;;11.31;98.70;98590.19;5164814;23;20639;-86
2024/02/15 02:09:36;;;;;;;9.30;7.17;;;;;;;11.27;98.87;98594.78;5165051;23;20583;-87
2024/02/15 02:11:39;;;;;;;11.13;8.07;;;;;;;11.26;100.00;98589.66;5112444;23;20586;-86
2024/02/15 02:13:43;;;;;;;10.90;7.50;;;;;;;11.25;100.00;98590.56;5138881;23;20866;-86
2024/02/15 02:15:46;;;;;;;10.73;7.97;;;;;;;11.25;98.61;98589.75;5138340;23;20679;-87
2024/02/15 02:17:50;;;;;;;9.53;7.57;;;;;;;11.24;99.99;98593.28;5112615;23;21141;-86
2024/02/15 02:19:57;;;;;;;11.73;7.77;;;;;;;11.24;100.00;98588.06;5139201;23;21048;-86
2024/02/15 02:22:00;;;;;;;9.73;7.20;;;;;;;11.21;100.00;98581.25;5138176;23;20970;-87
2024/02/15 02:24:07;;;;;;;11.30;8.00;;;;;;;11.21;100.00;98583.03;5138434;23;20631;-87
2024/02/15 02:26:12;;;;;;;11.93;7.80;;;;;;;11.19;99.42;98583.13;5113867;23;20966;-87
2024/02/15 02:28:16;;;;;;;12.97;7.77;;;;;;;11.19;99.18;98587.50;5137283;23;20616;-87
2024/02/15 02:30:22;;;;;;;9.03;6.93;;;;;;;11.18;99.82;98589.28;5113478;23;20586;-87
2024/02/15 02:32:25;;;;;;;10.33;7.60;;;;;;;11.18;99.31;98583.22;5114057;23;20558;-87
2024/02/15 02:34:28;;;;;;;11.13;7.40;;;;;;;11.17;99.42;98571.09;5163835;23;20650;-86
2024/02/15 02:36:32;;;;;;;10.83;6.90;;;;;;;11.16;99.92;98574.66;5114467;23;20581;-87
2024/02/15 02:38:37;;;;;;;11.63;7.37;;;;;;;11.14;99.39;98577.38;5165457;23;21123;-86
2024/02/15 02:40:41;;;;;;;8.63;7.10;;;;;;;11.14;100.00;98581.72;5155416;23;20641;-87
2024/02/15 02:42:53;;;;;;;9.97;6.50;;;;;;;11.13;99.65;98583.50;5137466;23;20585;-87
2024/02/15 02:44:56;;;;;;;9.17;7.40;;;;;;;11.11;100.00;98587.13;5163111;23;20560;-87
2024/02/15 02:47:01;;;;;;;7.93;6.40;;;;;;;11.10;100.00;98580.25;5162127;23;20696;-87
2024/02/15 02:49:04;;;;;;;10.43;7.60;;;;;;;11.10;100.00;98580.25;5163489;23;21454;-86
2024/02/15 02:51:08;;;;;;;10.73;7.47;;;;;;;11.08;100.00;98580.34;5137572;23;20581;-87
2024/02/15 02:53:13;;;;;;;9.00;7.20;;;;;;;11.07;100.00;98581.28;5163710;23;20564;-87
2024/02/15 02:55:17;;;;;;;9.83;6.40;;;;;;;11.07;100.00;98580.44;5163695;23;20615;-87
2024/02/15 02:57:20;;;;;;;10.53;6.27;;;;;;;11.07;100.00;98577.84;5162414;23;20618;-87
2024/02/15 02:59:25;;;;;;;13.17;7.30;;;;;;;11.05;99.64;98577.94;5163420;23;20637;-86
2024/02/15 03:01:28;;;;;;;11.20;7.33;;;;;;;11.03;100.00;98579.78;5139076;23;20584;-86
2024/02/15 03:03:30;;;;;;;9.70;6.50;;;;;;;11.05;98.88;98592.75;5163941;23;21124;-87
2024/02/15 03:05:34;;;;;;;9.30;7.30;;;;;;;11.04;100.00;98585.88;5136951;23;20967;-87
2024/02/15 03:07:37;;;;;;;9.97;6.63;;;;;;;11.02;100.00;98578.13;5162276;23;20607;-87
2024/02/15 03:09:41;;;;;;;10.63;6.80;;;;;;;10.99;99.47;98578.31;5137399;23;20566;-87
2024/02/15 03:11:45;;;;;;;10.13;6.93;;;;;;;10.96;99.72;98569.81;5137398;23;20577;-87
2024/02/15 03:13:48;;;;;;;12.37;7.30;;;;;;;10.92;100.00;98579.63;5138318;23;20592;-87
2024/02/15 03:15:52;;;;;;;10.97;6.57;;;;;;;10.93;99.21;98577.84;5163290;23;20684;-87
2024/02/15 03:17:56;;;;;;;8.73;6.17;;;;;;;10.91;100.00;98579.72;5161148;23;21159;-87
2024/02/15 03:20:00;;;;;;;10.23;7.13;;;;;;;10.90;100.00;98581.50;5137915;23;20923;-87
2024/02/15 03:22:02;;;;;;;7.80;6.07;;;;;;;10.89;99.81;98582.41;5165488;22;20636;-86
2024/02/15 03:24:06;;;;;;;10.67;6.50;;;;;;;10.84;100.00;98578.44;5163588;23;20580;-86
2024/02/15 03:26:11;;;;;;;9.40;6.50;;;;;;;10.80;100.00;98576.94;5161467;23;20618;-86
2024/02/15 03:28:15;;;;;;;11.77;7.00;;;;;;;10.77;100.00;98571.91;5162107;23;21131;-87
2024/02/15 03:30:17;;;;;;;9.20;7.00;;;;;;;10.72;100.00;98573.97;5163522;23;21259;-87
2024/02/15 03:32:22;;;;;;;11.37;6.33;;;;;;;10.67;100.00;98569.94;5163407;23;20614;-86
2024/02/15 03:34:25;;;;;;;9.73;6.70;;;;;;;10.62;99.92;98572.84;5163649;23;20579;-87
2024/02/15 03:36:29;;;;;;;10.37;7.17;;;;;;;10.60;100.00;98566.03;5137389;23;20584;-84
2024/02/15 03:38:32;;;;;;;10.37;6.27;;;;;;;10.61;100.00;98571.16;5137520;23;21112;-82
2024/02/15 03:40:37;;;;;;;8.87;5.83;;;;;;;10.59;100.00;98564.38;5162529;23;20631;-83
2024/02/15 03:42:40;;;;;;;8.47;6.30;;;;;;;10.60;100.00;98579.06;5161894;23;20627;-83
2024/02/15 03:44:43;;;;;;;12.57;7.00;;;;;;;10.57;100.00;98564.47;5162349;23;20576;-83
2024/02/15 03:46:50;;;;;;;10.53;6.50;;;;;;;10.45;100.00;98569.59;5137648;23;20609;-82
2024/02/15 03:48:55;;;;;;;9.20;6.93;;;;;;;10.36;100.00;98562.31;5162570;23;20611;-82
2024/02/15 03:50:59;;;;;;;8.20;6.43;;;;;;;10.35;100.00;98561.47;5137689;23;20588;-83
2024/02/15 03:53:02;;;;;;;12.13;6.83;;;;;;;10.32;100.00;98548.59;5137673;23;20585;-83
2024/02/15 03:55:07;;;;;;;13.33;7.27;;;;;;;10.31;100.00;98563.50;5163024;23;20580;-82
2024/02/15 03:57:12;;;;;;;11.00;6.37;;;;;;;10.31;100.00;98556.50;5189238;22;20725;-82
2024/02/15 03:59:15;;;;;;;10.93;6.70;;;;;;;10.33;100.00;98560.72;5136514;23;20695;-83
2024/02/15 04:01:19;;;;;;;9.60;6.43;;;;;;;10.34;100.00;98566.75;5136219;23;21016;-83
2024/02/15 04:03:22;;;;;;;9.23;6.30;;;;;;;10.34;100.00;98559.81;5161922;23;20691;-83
2024/02/15 04:05:26;;;;;;;11.43;7.10;;;;;;;10.32;100.00;98559.97;5188625;22;20592;-83
2024/02/15 04:07:29;;;;;;;11.00;7.40;;;;;;;10.32;100.00;98564.25;5161298;23;20584;-83
2024/02/15 04:09:35;;;;;;;11.70;7.50;;;;;;;10.39;100.00;98564.75;5136691;23;20573;-83
2024/02/15 04:11:38;;;;;;;7.55;6.47;;;;;;;10.41;100.00;98575.91;5161403;23;20576;-83
2024/02/15 04:13:43;;;;;;;11.00;7.27;;;;;;;10.42;100.00;98575.00;5136899;23;20248;-83
2024/02/15 04:15:49;;;;;;;12.60;7.27;;;;;;;10.45;100.00;98573.03;5161592;23;20564;-83
2024/02/15 04:17:56;;;;;;;10.40;7.23;;;;;;;10.47;100.00;98578.97;5161775;22;20587;-83
2024/02/15 04:20:00;;;;;;;11.70;7.10;;;;;;;10.49;100.00;98577.13;5161165;23;20885;-82
2024/02/15 04:22:08;;;;;;;8.73;6.23;;;;;;;10.52;100.00;98579.53;5162555;23;20577;-83
2024/02/15 04:24:12;;;;;;;10.20;7.60;;;;;;;10.54;100.00;98576.81;5162122;22;20580;-83
2024/02/15 04:26:19;;;;;;;8.97;7.20;;;;;;;10.56;100.00;98575.00;5162748;22;20568;-83
2024/02/15 04:28:23;;;;;;;11.47;7.33;;;;;;;10.58;100.00;98573.13;5162020;23;20564;-83
2024/02/15 04:30:25;;;;;;;8.50;6.83;;;;;;;10.60;100.00;98579.06;5161272;23;20587;-82
2024/02/15 04:32:32;;;;;;;9.13;6.23;;;;;;;10.60;100.00;98576.47;5162000;23;20575;-83
2024/02/15 04:34:37;;;;;;;10.53;6.80;;;;;;;10.57;100.00;98582.72;5137134;23;21099;-82
2024/02/15 04:36:42;;;;;;;11.03;6.73;;;;;;;10.61;100.00;98578.97;5162156;22;20642;-83
2024/02/15 04:38:49;;;;;;;11.73;6.77;;;;;;;10.64;100.00;98584.00;5188666;22;21157;-83
2024/02/15 04:40:53;;;;;;;9.80;5.80;;;;;;;10.67;100.00;98583.00;5161474;23;20612;-83
2024/02/15 04:43:04;;;;;;;9.30;5.60;;;;;;;10.69;100.00;98591.56;5163349;22;20969;-83
2024/02/15 04:45:10;;;;;;;8.30;5.60;;;;;;;10.70;100.00;98583.63;5160914;22;20568;-83
2024/02/15 04:47:26;;;;;;;9.20;6.60;;;;;;;10.72;100.00;98584.41;5138541;23;20597;-87
2024/02/15 04:49:30;;;;;;;7.97;5.90;;;;;;;10.71;100.00;98590.53;5188702;22;20579;-87
2024/02/15 04:51:34;;;;;;;8.00;6.30;;;;;;;10.73;100.00;98588.66;5161753;23;20576;-87
2024/02/15 04:53:38;;;;;;;9.60;6.07;;;;;;;10.73;100.00;98587.84;5162663;23;20667;-87
2024/02/15 04:55:43;;;;;;;7.10;5.77;;;;;;;10.76;100.00;98585.03;5162063;23;20579;-87
2024/02/15 04:57:48;;;;;;;8.57;6.00;;;;;;;10.79;100.00;98590.06;5161377;22;21400;-87
2024/02/15 04:59:53;;;;;;;8.03;5.17;;;;;;;10.81;100.00;98587.28;5162529;22;20660;-87
2024/02/15 05:01:59;;;;;;;9.50;5.33;;;;;;;10.83;100.00;98588.00;5162270;22;20707;-87
2024/02/15 05:04:05;;;;;;;8.30;5.70;;;;;;;10.83;100.00;98588.00;5162225;23;20906;-87
2024/02/15 05:06:10;;;;;;;9.80;5.40;;;;;;;10.84;100.00;98584.47;5162204;22;20989;-87
2024/02/15 05:08:15;;;;;;;7.23;5.17;;;;;;;10.85;100.00;98583.56;5188358;22;21164;-86
2024/02/15 05:10:29;;;;;;;7.20;5.80;;;;;;;10.88;100.00;98582.50;5141492;22;20658;-86
2024/02/15 05:12:39;;;;;;;7.70;5.50;;;;;;;10.89;100.00;98581.59;5188987;22;20590;-87
2024/02/15 05:14:44;;;;;;;9.90;5.33;;;;;;;10.87;100.00;98581.69;5189144;22;20640;-87
2024/02/15 05:16:49;;;;;;;8.87;5.43;;;;;;;10.89;100.00;98581.59;5186984;22;20924;-87
2024/02/15 05:19:07;;;;;;;7.50;5.80;;;;;;;10.89;100.00;98577.19;5164753;22;20621;-87
2024/02/15 05:21:30;;;;;;;6.70;4.90;;;;;;;10.89;100.00;98582.41;5165950;22;20634;-87
2024/02/15 05:23:39;;;;;;;8.90;5.13;;;;;;;10.91;100.00;98574.50;5163272;22;20637;-87
2024/02/15 05:26:04;;;;;;;8.37;5.20;;;;;;;10.92;100.00;98581.41;5165971;22;20656;-88
2024/02/15 05:28:28;;;;;;;6.63;5.57;;;;;;;10.90;100.00;98578.88;5188924;22;20584;-86
2024/02/15 05:30:51;;;;;;;8.53;5.60;;;;;;;10.90;100.00;98568.44;5167173;22;20584;-87
2024/02/15 05:33:14;;;;;;;7.13;5.60;;;;;;;10.91;100.00;98570.09;5167250;22;20998;-87
2024/02/15 05:35:39;;;;;;;8.60;5.40;;;;;;;10.90;100.00;98568.44;5166988;22;20602;-87
2024/02/15 05:37:47;;;;;;;8.00;5.70;;;;;;;10.89;100.00;98577.19;5162547;22;20594;-85
2024/02/15 05:39:55;;;;;;;10.70;6.67;;;;;;;10.91;100.00;98580.53;5189434;22;20590;-87
2024/02/15 05:42:00;;;;;;;10.13;6.40;;;;;;;10.90;100.00;98576.28;5162224;22;20592;-87
2024/02/15 05:44:10;;;;;;;9.93;6.17;;;;;;;10.89;100.00;98577.19;5164862;22;20664;-87
2024/02/15 05:46:14;;;;;;;10.27;6.90;;;;;;;10.91;100.00;98575.31;5164002;22;20576;-87
2024/02/15 05:48:21;;;;;;;9.83;6.30;;;;;;;10.90;100.00;98576.28;5187685;22;20594;-86
2024/02/15 05:50:31;;;;;;;9.73;6.30;;;;;;;10.91;100.00;98574.50;5165559;22;20929;-87
2024/02/15 05:52:36;;;;;;;13.03;6.80;;;;;;;10.91;100.00;98574.50;5190860;22;20712;-87
2024/02/15 05:54:59;;;;;;;9.20;6.40;;;;;;;10.91;100.00;98580.53;5167662;22;20623;-88
2024/02/15 05:57:03;;;;;;;12.17;6.57;;;;;;;10.92;100.00;98576.19;5190123;22;20584;-87
2024/02/15 05:59:21;;;;;;;8.87;6.07;;;;;;;10.93;100.00;98578.69;5190261;22;20605;-87
2024/02/15 06:01:45;;;;;;;8.50;6.73;;;;;;;10.93;100.00;98570.88;5168287;22;21241;-87
2024/02/15 06:03:54;;;;;;;8.07;6.90;;;;;;;10.94;100.00;98580.34;5164507;22;20646;-86
2024/02/15 06:06:09;;;;;;;9.50;6.67;;;;;;;10.94;100.00;98579.53;5142134;22;20976;-87
2024/02/15 06:08:32;;;;;;;11.47;7.10;;;;;;;10.93;100.00;98581.31;5167038;22;20615;-86
2024/02/15 06:10:38;;;;;;;9.90;7.23;;;;;;;10.93;100.00;98581.31;5161173;22;20582;-87
2024/02/15 06:12:45;;;;;;;10.20;7.17;;;;;;;10.93;100.00;98573.47;5162995;22;20580;-87
2024/02/15 06:14:51;;;;;;;9.23;6.73;;;;;;;10.96;100.00;98577.66;5163464;22;20572;-86
2024/02/15 06:17:14;;;;;;;10.40;6.73;;;;;;;10.97;100.00;98584.56;5167391;22;20603;-87
2024/02/15 06:19:38;;;;;;;11.33;7.00;;;;;;;10.98;100.00;98576.63;5190667;22;20632;-86
2024/02/15 06:21:47;;;;;;;9.53;7.23;;;;;;;10.99;100.00;98577.47;5189020;22;20633;-87
2024/02/15 06:24:10;;;;;;;8.70;7.00;;;;;;;11.00;100.00;98579.16;5190643;22;20666;-87
2024/02/15 06:26:16;;;;;;;9.20;7.43;;;;;;;11.02;100.00;98585.97;5190081;22;20601;-87
2024/02/15 06:41:21;;;;;;;11.40;7.00;;;;;;;10.97;100.00;98581.94;5163595;22;21207;-87
2024/02/15 06:43:30;;;;;;;11.13;7.10;;;;;;;10.94;100.00;98585.56;5139878;22;20553;-87
2024/02/15 06:45:37;;;;;;;12.17;8.40;;;;;;;10.94;100.00;98585.56;5164055;22;20562;-85
2024/02/15 06:47:57;;;;;;;9.13;7.40;;;;;;;10.95;100.00;98582.03;5189863;22;20924;-87
2024/02/15 06:50:20;;;;;;;9.13;7.40;;;;;;;10.93;100.00;98583.06;5146905;22;20585;-87
2024/02/15 06:52:26;;;;;;;13.93;10.37;;;;;;;10.91;100.00;98580.53;5164140;22;20606;-87
2024/02/15 06:54:38;;;;;;;15.87;10.47;;;;;;;10.86;100.00;98568.72;5189572;22;20641;-86
2024/02/15 06:56:43;;;;;;;13.50;11.13;;;;;;;10.82;100.00;98580.28;5137489;22;20589;-87
2024/02/15 06:59:07;;;;;;;14.50;12.70;;;;;;;10.81;100.00;98579.44;5190835;22;20647;-87
2024/02/15 07:01:30;;;;;;;15.80;11.43;;;;;;;10.87;100.00;98583.47;5166697;22;20607;-86
2024/02/15 07:03:55;;;;;;;10.40;7.60;;;;;;;10.91;100.00;98584.94;5191176;22;20651;-87
2024/02/15 07:06:21;;;;;;;10.07;7.43;;;;;;;10.92;100.00;98582.22;5168526;22;20829;-86
2024/02/15 07:08:45;;;;;;;11.33;8.00;;;;;;;10.92;100.00;98582.22;5146758;22;21343;-89
2024/02/15 07:10:51;;;;;;;9.87;7.53;;;;;;;10.95;100.00;98582.03;5164107;22;20626;-88
2024/02/15 07:12:56;;;;;;;12.80;10.17;;;;;;;10.99;100.00;98578.31;5164305;22;20564;-87
2024/02/15 07:15:20;;;;;;;12.00;9.50;;;;;;;11.08;100.00;98576.88;5189883;22;20579;-87
2024/02/15 07:17:43;;;;;;;13.80;8.77;;;;;;;11.16;100.00;98585.94;5189930;22;20645;-86
2024/02/15 07:19:51;;;;;;;17.10;12.53;;;;;;;11.22;100.00;98585.53;5164435;22;20676;-85
2024/02/15 07:22:03;;;;;;;10.87;8.20;;;;;;;11.26;100.00;98588.78;5190695;22;21097;-88
2024/02/15 07:24:26;;;;;;;7.50;5.53;;;;;;;11.32;100.00;98591.84;5169074;22;20586;-86
2024/02/15 07:26:52;;;;;;;7.00;4.67;;;;;;;11.42;100.00;98590.34;5191607;22;20584;-85
2024/02/15 07:29:00;;;;;;;12.07;9.93;;;;;;;11.50;100.00;98593.31;5165544;22;20670;-85
2024/02/15 07:31:16;;;;;;;14.23;11.27;;;;;;;11.53;100.00;98593.13;5192164;22;20609;-87
2024/02/15 07:33:38;;;;;;;15.40;10.70;;;;;;;11.56;100.00;98592.94;5169287;22;20613;-85
2024/02/15 07:35:57;;;;;;;14.43;10.53;;;;;;;11.58;100.00;98597.13;5167909;22;20687;-86
2024/02/15 07:38:13;;;;;;;13.60;9.77;;;;;;;11.64;100.00;98588.06;5167780;22;21126;-86
2024/02/15 07:40:36;;;;;;;19.10;8.50;;;;;;;11.69;100.00;98586.81;5167974;22;20596;-85
2024/02/15 07:42:52;;;;;;;9.23;6.60;;;;;;;11.72;100.00;98586.63;5189967;22;20645;-86
2024/02/15 07:44:58;;;;;;;12.13;6.17;;;;;;;11.75;100.00;98568.97;5163223;22;20667;-86
2024/02/15 07:47:15;;;;;;;18.90;8.93;;;;;;;11.83;100.00;98576.28;5164373;22;20564;-86
2024/02/15 07:49:33;;;;;;;47.33;25.90;;;;;;;11.87;100.00;98577.78;5142520;22;20592;-85
2024/02/15 07:51:41;;;;;;;11.00;7.30;;;;;;;11.90;100.00;98575.78;5190132;22;20562;-86
2024/02/15 07:54:06;;;;;;;8.67;6.27;;;;;;;11.92;100.00;98573.94;5167470;22;20580;-85
2024/02/15 07:56:29;;;;;;;9.97;6.97;;;;;;;11.93;99.44;98559.91;5188433;22;20977;-86
2024/02/15 07:58:51;;;;;;;8.10;5.77;;;;;;;11.98;99.50;98560.47;5164257;22;20959;-87
2024/02/15 08:01:16;;;;;;;6.63;4.03;;;;;;;12.09;98.88;98552.75;5167352;22;21221;-89
2024/02/15 08:03:44;;;;;;;5.60;2.70;;;;;;;12.22;97.25;98556.19;5146744;22;21442;-90
2024/02/15 08:06:07;;;;;;;5.53;2.73;;;;;;;12.36;96.23;98554.31;5189580;22;21257;-89
2024/02/15 08:08:34;;;;;;;4.90;3.00;;;;;;;12.56;95.18;98553.78;5146185;22;21199;-88
2024/02/15 08:10:51;;;;;;;6.40;3.70;;;;;;;12.77;94.78;98555.75;5166366;22;20611;-89
2024/02/15 08:13:15;;;;;;;5.87;3.20;;;;;;;12.96;94.19;98558.81;5167467;22;20581;-88
2024/02/15 08:15:28;;;;;;;5.90;2.90;;;;;;;13.21;94.13;98556.13;5164582;22;20561;-89
2024/02/15 08:17:51;;;;;;;4.30;2.40;;;;;;;13.47;92.40;98550.69;5144952;22;20611;-84
2024/02/15 08:20:21;;;;;;;3.10;2.23;;;;;;;13.70;91.79;98545.44;5166035;22;21458;-84
2024/02/15 08:22:26;;;;;;;4.90;2.50;;;;;;;13.82;90.89;98547.16;5189343;22;20923;-85
2024/02/15 08:24:33;;;;;;;3.80;2.00;;;;;;;13.93;89.40;98548.97;5163158;22;20576;-84
2024/02/15 08:26:59;;;;;;;3.60;1.90;;;;;;;14.09;88.18;98537.25;5143799;22;20681;-84
2024/02/15 08:29:22;;;;;;;5.47;1.90;;;;;;;14.18;86.75;98529.53;5166900;22;20585;-84
2024/02/15 08:31:45;;;;;;;4.03;1.90;;;;;;;14.25;86.65;98528.13;5166861;22;20589;-84
2024/02/15 08:33:58;;;;;;;2.90;1.73;;;;;;;14.31;85.64;98525.03;5188195;22;20576;-82
2024/02/15 08:36:14;;;;;;;3.90;1.63;;;;;;;14.36;86.78;98524.69;5188440;22;20796;-82
2024/02/15 08:38:38;;;;;;;4.20;2.30;;;;;;;14.46;86.95;98523.00;5165894;22;20585;-82
2024/02/15 08:41:01;;;;;;;3.60;1.60;;;;;;;14.52;86.72;98526.00;5165700;22;20596;-81
2024/02/15 08:43:24;;;;;;;4.33;2.03;;;;;;;14.55;85.90;98525.75;5166906;22;20621;-82
2024/02/15 08:45:48;;;;;;;3.23;1.60;;;;;;;14.65;87.38;98527.56;5166503;22;20664;-81
2024/02/15 08:47:59;;;;;;;3.63;1.60;;;;;;;14.68;87.45;98529.13;5188012;22;20608;-82
2024/02/15 08:50:17;;;;;;;3.30;1.90;;;;;;;14.65;85.73;98522.31;5165404;22;20583;-82
2024/02/15 08:52:41;;;;;;;4.13;1.40;;;;;;;14.66;85.88;98529.22;5167212;22;20585;-81
2024/02/15 08:55:06;;;;;;;3.20;1.67;;;;;;;14.70;84.70;98517.56;5145600;22;20595;-82
2024/02/15 08:57:31;;;;;;;3.30;1.73;;;;;;;14.73;83.47;98519.94;5164808;22;21224;-82
2024/02/15 08:59:54;;;;;;;3.63;1.47;;;;;;;14.78;83.79;98517.78;5166155;22;20593;-82
2024/02/15 09:02:05;;;;;;;3.27;1.67;;;;;;;14.81;85.77;98514.91;5163764;22;20980;-82
2024/02/15 09:04:29;;;;;;;4.03;1.77;;;;;;;14.88;83.88;98510.00;5166937;22;20634;-83
2024/02/15 09:06:48;;;;;;;3.63;1.60;;;;;;;14.94;84.00;98515.59;5164760;22;21020;-82
2024/02/15 09:09:11;;;;;;;3.83;1.97;;;;;;;15.01;83.70;98521.22;5166135;22;20590;-83
2024/02/15 09:11:34;;;;;;;2.50;1.60;;;;;;;15.07;84.77;98515.50;5188437;22;20583;-82
2024/02/15 09:13:59;;;;;;;4.03;1.70;;;;;;;15.10;84.07;98513.44;5167104;22;20582;-82
2024/02/15 09:16:22;;;;;;;4.30;1.63;;;;;;;15.20;82.71;98506.53;5165538;22;20586;-83
2024/02/15 09:18:45;;;;;;;3.40;1.50;;;;;;;15.36;83.26;98501.72;5166743;22;20601;-82
2024/02/15 09:21:09;;;;;;;2.70;1.47;;;;;;;15.52;80.54;98504.78;5168505;22;20621;-82
2024/02/15 09:23:32;;;;;;;5.53;2.10;;;;;;;15.65;81.73;98507.09;5166918;22;20683;-82
2024/02/15 09:25:39;;;;;;;2.73;1.40;;;;;;;15.72;82.59;98507.44;5164620;22;20559;-83
2024/02/15 09:27:45;;;;;;;4.23;2.00;;;;;;;15.88;82.58;98500.78;5189579;22;20589;-82
2024/02/15 09:30:11;;;;;;;4.67;1.80;;;;;;;16.01;80.52;98509.31;5190618;22;20621;-82
2024/02/15 09:32:35;;;;;;;2.93;1.60;;;;;;;16.14;81.39;98509.97;5168019;22;21105;-83
2024/02/15 09:34:59;;;;;;;3.47;1.60;;;;;;;16.27;79.66;98510.66;5168388;22;20939;-83
2024/02/15 09:37:15;;;;;;;3.40;1.70;;;;;;;16.42;79.85;98512.81;5165938;22;20536;-82
2024/02/15 09:39:38;;;;;;;3.70;1.40;;;;;;;16.57;80.22;98508.88;5168020;22;20673;-82
2024/02/15 09:41:58;;;;;;;2.90;1.50;;;;;;;16.64;78.62;98495.06;5190098;22;21100;-82
2024/02/15 09:44:22;;;;;;;3.90;1.77;;;;;;;16.76;78.69;98503.69;5189857;22;21015;-82
2024/02/15 09:46:27;;;;;;;3.03;1.40;;;;;;;16.89;79.97;98494.59;5137851;23;20912;-82
2024/02/15 09:48:59;;;;;;;8.30;2.20;;;;;;;17.01;77.32;98501.41;5166662;22;20580;-84
2024/02/15 09:51:23;;;;;;;2.80;1.20;;;;;;;17.11;77.34;98497.03;5167597;22;20583;-85
2024/02/15 09:53:47;;;;;;;3.07;1.60;;;;;;;17.11;75.42;98494.38;5146529;22;20585;-83
2024/02/15 09:56:11;;;;;;;5.57;1.47;;;;;;;17.11;75.98;98492.56;5167565;22;20626;-83
2024/02/15 09:58:34;;;;;;;3.93;1.70;;;;;;;17.15;75.75;98490.50;5166470;22;20660;-83
2024/02/15 10:00:40;;;;;;;2.60;1.60;;;;;;;17.18;74.73;98491.03;5164346;22;20579;-83
2024/02/15 10:03:07;;;;;;;5.10;2.30;;;;;;;17.23;75.05;98480.97;5146921;22;20571;-83
2024/02/15 10:05:31;;;;;;;3.00;1.40;;;;;;;17.31;75.87;98485.56;5168160;22;21205;-83
2024/02/15 10:07:48;;;;;;;2.73;1.33;;;;;;;17.40;75.29;98480.31;5190033;22;20606;-82
2024/02/15 10:10:19;;;;;;;4.50;1.50;;;;;;;17.37;73.98;98483.22;5190064;22;21071;-82
2024/02/15 10:12:44;;;;;;;6.93;3.40;;;;;;;17.41;74.36;98479.34;5189541;22;20591;-82
2024/02/15 10:15:09;;;;;;;3.50;1.63;;;;;;;17.38;73.85;98476.13;5168333;22;20577;-82
2024/02/15 10:17:35;;;;;;;5.40;2.30;;;;;;;17.35;73.44;98476.41;5167805;22;21004;-82
2024/02/15 10:20:09;;;;;;;3.60;1.50;;;;;;;17.37;73.78;98472.66;5167901;22;20643;-82